createdAt,value
2022-08-17T00:04:11.759Z,100252.13
2022-08-17T00:09:11.108Z,100252.09
2022-08-17T00:14:19.979Z,100246.44
2022-08-17T00:19:23.160Z,100247.97
2022-08-17T00:24:22.305Z,100237.97
2022-08-17T00:29:24.996Z,100237.91
2022-08-17T00:34:25.445Z,100234.13
2022-08-17T00:39:27.130Z,100232.19
2022-08-17T00:44:30.298Z,100232.75
2022-08-17T00:49:31.732Z,100228.34
2022-08-17T00:54:42.123Z,100239.31
2022-08-17T01:00:01.955Z,100246.06
2022-08-17T01:05:03.930Z,100238.09
2022-08-17T01:10:07.726Z,100233.28
2022-08-17T01:15:27.376Z,100236.53
2022-08-17T01:20:28.102Z,100232.00
2022-08-17T01:25:30.695Z,100222.25
2022-08-17T01:30:58.987Z,100230.97
2022-08-17T01:35:51.517Z,100232.91
2022-08-17T01:40:57.730Z,100231.81
2022-08-17T01:46:02.805Z,100235.81
2022-08-17T01:51:03.138Z,100236.91
2022-08-17T01:56:09.526Z,100239.25
2022-08-17T02:01:10.307Z,100230.78
2022-08-17T02:06:27.196Z,100227.44
2022-08-17T02:11:28.679Z,100227.22
2022-08-17T02:16:28.869Z,100227.44
2022-08-17T02:21:37.142Z,100226.41
2022-08-17T02:26:37.841Z,100231.16
2022-08-17T02:31:37.977Z,100243.50
2022-08-17T02:36:38.111Z,100246.38
2022-08-17T02:41:38.956Z,100251.34
2022-08-17T02:46:38.594Z,100242.78
2022-08-17T02:51:37.804Z,100251.91
2022-08-17T02:56:38.305Z,100254.13
2022-08-17T03:01:37.339Z,100256.19
2022-08-17T03:06:44.082Z,100246.63
2022-08-17T03:11:44.709Z,100244.03
2022-08-17T03:16:43.885Z,100242.09
2022-08-17T03:21:43.026Z,100257.25
2022-08-17T03:26:43.068Z,100256.41
2022-08-17T03:31:43.514Z,100250.72
2022-08-17T03:36:45.390Z,100258.38
2022-08-17T03:41:45.385Z,100257.44
2022-08-17T03:47:04.947Z,100270.63
2022-08-17T03:52:22.441Z,100278.25
2022-08-17T03:57:21.919Z,100286.34
2022-08-17T04:02:25.543Z,100290.88
2022-08-17T04:07:27.782Z,100295.41
2022-08-17T04:12:31.124Z,100299.13
2022-08-17T04:17:32.292Z,100302.50
2022-08-17T04:22:34.381Z,100303.88
2022-08-17T04:27:34.315Z,100307.41
2022-08-17T04:33:04.215Z,100308.25
2022-08-17T04:37:54.437Z,100318.00
2022-08-17T04:43:03.018Z,100315.97
2022-08-17T04:48:04.445Z,100312.56
2022-08-17T04:53:04.383Z,100317.59
2022-08-17T04:58:03.515Z,100306.88
2022-08-17T05:03:06.928Z,100311.19
2022-08-17T05:08:08.270Z,100311.28
2022-08-17T05:13:11.427Z,100318.69
2022-08-17T05:18:13.342Z,100319.72
2022-08-17T05:23:23.213Z,100331.72
2022-08-17T05:28:28.010Z,100329.97
2022-08-17T05:33:42.674Z,100333.72
2022-08-17T05:38:47.035Z,100320.34
2022-08-17T05:43:58.301Z,100323.28
2022-08-17T05:49:08.077Z,100325.00
2022-08-17T05:54:16.376Z,100309.19
2022-08-17T05:59:25.683Z,100326.75
2022-08-17T06:04:48.498Z,100336.94
2022-08-17T06:10:15.158Z,100324.69
2022-08-17T06:16:05.175Z,100321.06
2022-08-17T06:22:03.365Z,100336.75
2022-08-17T06:27:31.792Z,100335.16
2022-08-17T06:32:34.197Z,100339.06
2022-08-17T06:38:00.915Z,100325.19
2022-08-17T06:43:24.501Z,100321.41
2022-08-17T06:48:37.478Z,100321.47
2022-08-17T06:53:45.702Z,100318.97
2022-08-17T06:58:52.796Z,100316.13
2022-08-17T07:04:00.319Z,100333.06
2022-08-17T07:09:13.254Z,100327.13
2022-08-17T07:14:39.469Z,100330.19
2022-08-17T07:19:48.244Z,100330.59
2022-08-17T07:24:57.411Z,100341.75
2022-08-17T07:30:10.951Z,100351.41
2022-08-17T07:35:16.014Z,100334.84
2022-08-17T07:40:27.708Z,100328.91
2022-08-17T07:51:01.133Z,100324.28
2022-08-17T07:56:05.391Z,100325.31
2022-08-17T08:01:09.086Z,100325.47
2022-08-17T08:06:21.231Z,100326.72
2022-08-17T08:11:35.101Z,100325.31
2022-08-17T08:16:37.068Z,100321.38
2022-08-17T08:21:46.684Z,100319.09
2022-08-17T08:27:02.077Z,100305.75
2022-08-17T08:32:43.561Z,100308.50
2022-08-17T08:38:09.789Z,100302.75
2022-08-17T08:43:23.698Z,100305.09
2022-08-17T08:48:58.309Z,100297.03
2022-08-17T08:54:27.320Z,100298.53
2022-08-17T08:59:41.821Z,100289.81
2022-08-17T09:05:13.993Z,100295.19
2022-08-17T09:10:26.168Z,100297.47
2022-08-17T09:15:38.592Z,100282.22
2022-08-17T09:26:46.616Z,100268.22
2022-08-17T09:32:02.028Z,100286.72
2022-08-17T09:37:26.178Z,100276.44
2022-08-17T09:42:38.327Z,100283.22
2022-08-17T09:47:46.979Z,100279.44
2022-08-17T09:52:47.991Z,100276.38
2022-08-17T09:58:30.357Z,100277.47
2022-08-17T10:04:03.065Z,100261.16
2022-08-17T10:09:16.272Z,100260.63
2022-08-17T10:14:37.653Z,100255.41
2022-08-17T10:19:54.613Z,100267.88
2022-08-17T10:25:23.974Z,100237.69
2022-08-17T10:30:27.983Z,100242.75
2022-08-17T10:35:36.486Z,100231.53
2022-08-17T10:40:45.680Z,100226.84
2022-08-17T10:46:09.450Z,100215.78
2022-08-17T10:51:43.734Z,100213.84
2022-08-17T10:57:02.995Z,100202.75
2022-08-17T11:02:19.720Z,100207.31
2022-08-17T11:07:47.422Z,100186.28
2022-08-17T11:13:13.648Z,100216.19
2022-08-17T11:24:39.009Z,100199.28
2022-08-17T11:30:43.556Z,100197.09
2022-08-17T11:35:52.913Z,100179.31
2022-08-17T11:41:17.166Z,100182.16
2022-08-17T11:47:00.841Z,100165.56
2022-08-17T11:59:01.141Z,100150.56
2022-08-17T12:04:38.123Z,100154.72
2022-08-17T12:15:36.318Z,100142.91
2022-08-17T12:21:18.251Z,100141.00
2022-08-17T12:32:41.000Z,100127.50
2022-08-17T12:38:00.111Z,100115.06
2022-08-17T12:43:08.052Z,100111.88
2022-08-17T12:48:31.374Z,100119.94
2022-08-17T12:53:35.505Z,100110.53
2022-08-17T12:58:47.833Z,100111.50
2022-08-17T13:04:16.346Z,100106.00
2022-08-17T13:09:40.773Z,100106.22
2022-08-17T13:14:49.868Z,100107.16
2022-08-17T13:19:52.363Z,100099.34
2022-08-17T13:24:57.713Z,100097.25
2022-08-17T13:30:06.560Z,100102.88
2022-08-17T13:35:50.436Z,100106.03
2022-08-17T13:40:59.683Z,100100.56
2022-08-17T13:46:29.418Z,100106.34
2022-08-17T13:51:39.165Z,100112.94
2022-08-17T13:56:52.398Z,100099.16
2022-08-17T14:01:59.023Z,100106.53
2022-08-17T14:07:03.053Z,100105.81
2022-08-17T14:12:03.850Z,100114.19
2022-08-17T14:17:06.279Z,100119.97
2022-08-17T14:22:19.740Z,100119.78
2022-08-17T14:27:22.476Z,100122.13
2022-08-17T14:32:27.241Z,100108.63
2022-08-17T14:37:30.071Z,100109.06
2022-08-17T14:42:33.293Z,100112.44
2022-08-17T14:47:33.184Z,100115.13
2022-08-17T14:52:34.580Z,100108.66
2022-08-17T14:57:42.032Z,100104.75
2022-08-17T15:02:48.619Z,100109.47
2022-08-17T15:07:49.562Z,100104.28
2022-08-17T15:12:49.255Z,100095.28
2022-08-17T15:17:54.530Z,100099.19
2022-08-17T15:22:57.476Z,100099.50
2022-08-17T15:27:56.779Z,100100.59
2022-08-17T15:32:58.395Z,100097.97
2022-08-17T15:38:09.881Z,100094.78
2022-08-17T15:43:12.352Z,100100.66
2022-08-17T15:48:14.597Z,100137.09
2022-08-17T15:53:16.267Z,100140.63
2022-08-17T15:58:15.496Z,100145.28
2022-08-17T16:03:59.392Z,100158.41
2022-08-17T16:08:44.198Z,100170.22
2022-08-17T16:13:51.296Z,100162.50
2022-08-17T16:18:58.712Z,100172.19
2022-08-17T16:24:03.912Z,100170.88
2022-08-17T16:29:07.937Z,100176.31
2022-08-17T16:34:16.952Z,100179.03
2022-08-17T16:39:19.061Z,100181.78
2022-08-17T16:44:21.110Z,100179.25
2022-08-17T16:49:34.442Z,100183.09
2022-08-17T16:54:39.538Z,100189.13
2022-08-17T16:59:43.695Z,100212.38
2022-08-17T17:04:53.589Z,100212.69
2022-08-17T17:10:00.859Z,100216.31
2022-08-17T17:15:02.716Z,100212.06
2022-08-17T17:20:17.314Z,100216.91
2022-08-17T17:25:28.690Z,100227.44
2022-08-17T17:30:36.934Z,100220.19
2022-08-17T17:35:51.050Z,100233.66
2022-08-17T17:40:56.119Z,100232.91
2022-08-17T17:46:27.292Z,100246.84
2022-08-17T17:52:06.606Z,100240.56
2022-08-17T17:57:05.083Z,100246.84
2022-08-17T18:02:34.832Z,100253.06
2022-08-17T18:07:40.609Z,100257.19
2022-08-17T18:12:50.126Z,100261.25
2022-08-17T18:18:33.329Z,100285.53
2022-08-17T18:23:33.244Z,100289.53
2022-08-17T18:28:45.673Z,100280.63
2022-08-17T18:33:48.445Z,100291.69
2022-08-17T18:38:47.590Z,100292.84
2022-08-17T18:44:01.711Z,100279.44
2022-08-17T18:49:03.863Z,100283.44
2022-08-17T18:54:15.656Z,100291.38
2022-08-17T18:59:33.850Z,100287.09
2022-08-17T19:04:36.786Z,100280.06
2022-08-17T19:09:38.875Z,100285.59
2022-08-17T19:14:39.449Z,100294.69
2022-08-17T19:19:45.397Z,100308.88
2022-08-17T19:24:49.392Z,100301.94
2022-08-17T19:29:56.315Z,100303.94
2022-08-17T19:34:56.522Z,100303.38
2022-08-17T19:40:07.868Z,100298.00
2022-08-17T19:45:20.852Z,100308.53
2022-08-17T19:50:26.708Z,100302.69
2022-08-17T19:55:32.916Z,100304.22
2022-08-17T20:00:40.111Z,100298.63
2022-08-17T20:06:10.979Z,100303.72
2022-08-17T20:11:11.449Z,100301.41
2022-08-17T20:16:13.573Z,100307.56
2022-08-17T20:21:20.187Z,100316.47
2022-08-17T20:26:24.196Z,100325.31
2022-08-17T20:31:45.638Z,100323.78
2022-08-17T20:37:00.166Z,100327.00
2022-08-17T20:42:09.417Z,100323.75
2022-08-17T20:47:14.131Z,100321.31
2022-08-17T20:52:16.725Z,100321.38
2022-08-17T20:57:48.660Z,100320.59
2022-08-17T21:02:52.157Z,100323.38
2022-08-17T21:07:58.059Z,100322.19
2022-08-17T21:13:05.670Z,100325.16
2022-08-17T21:18:18.516Z,100322.72
2022-08-17T21:23:44.059Z,100326.09
2022-08-17T21:29:00.542Z,100326.13
2022-08-17T21:34:29.076Z,100313.03
2022-08-17T21:39:34.861Z,100320.34
2022-08-17T21:44:36.878Z,100316.19
2022-08-17T21:49:37.780Z,100322.25
2022-08-17T21:54:39.036Z,100321.25
2022-08-17T21:59:40.136Z,100322.56
2022-08-17T22:04:42.895Z,100323.22
2022-08-17T22:09:45.060Z,100318.81
2022-08-17T22:14:51.728Z,100326.75
2022-08-17T22:20:03.133Z,100319.47
2022-08-17T22:25:04.299Z,100317.19
2022-08-17T22:30:17.925Z,100322.41
2022-08-17T22:35:37.184Z,100326.41
2022-08-17T22:40:36.136Z,100332.66
2022-08-17T22:45:47.054Z,100332.22
2022-08-17T22:50:47.505Z,100330.53
2022-08-17T22:56:09.705Z,100328.28
2022-08-17T23:01:26.983Z,100331.19
2022-08-17T23:06:27.385Z,100337.66
2022-08-17T23:11:36.676Z,100338.06
2022-08-17T23:16:47.411Z,100335.13
2022-08-17T23:21:54.085Z,100336.81
2022-08-17T23:26:53.268Z,100339.91
2022-08-17T23:31:52.740Z,100343.03
2022-08-17T23:36:53.318Z,100341.56
2022-08-17T23:41:53.964Z,100332.97
2022-08-17T23:46:53.549Z,100337.31
2022-08-17T23:51:55.326Z,100338.78
2022-08-17T23:56:54.336Z,100335.03
